Time;durP1;ratioP1;P1;durP2;ratioP2;P2;SDS_P1;SDS_P2;PMS_P1;PMS_P2;Temp;Humidity;BMP_temperature;BMP_pressure;BME280_temperature;BME280_humidity;BME280_pressure;Samples;Min_cycle;Max_cycle;Signal;HPM_P1;HPM_P2
2022/11/18 00:01:48;;;;;;;12.47;7.00;;;;;;;;;;4958907;28;20486;-87
2022/11/18 00:04:17;;;;;;;11.00;7.47;;;;;;;;;;4976091;28;20411;-84
2022/11/18 00:06:43;;;;;;;12.97;7.60;;;;;;;;;;4976171;28;20427;-88
2022/11/18 00:09:09;;;;;;;11.70;7.40;;;;;;;;;;4958799;28;20413;-88
2022/11/18 00:14:26;;;;;;;13.70;7.50;;;;;;;;;;4975839;28;20560;-83
2022/11/18 00:16:51;;;;;;;12.83;8.77;;;;;;;;;;4974847;28;20454;-87
2022/11/18 00:19:18;;;;;;;16.50;8.37;;;;;;;;;;4976206;28;20510;-85
2022/11/18 00:21:44;;;;;;;12.53;7.40;;;;;;;;;;4975929;28;20467;-87
2022/11/18 00:24:10;;;;;;;12.47;8.10;;;;;;;;;;4975849;28;20420;-85
2022/11/18 00:26:36;;;;;;;15.97;8.00;;;;;;;;;;4957441;28;20424;-87
2022/11/18 00:29:03;;;;;;;14.77;7.80;;;;;;;;;;4974544;28;20511;-85
2022/11/18 00:31:29;;;;;;;12.60;7.43;;;;;;;;;;4958058;28;20573;-85
2022/11/18 00:33:55;;;;;;;12.33;7.40;;;;;;;;;;4957793;28;20419;-87
2022/11/18 00:36:21;;;;;;;13.53;8.00;;;;;;;;;;4958667;28;20786;-87
2022/11/18 00:38:47;;;;;;;14.07;8.13;;;;;;;;;;4975902;28;20778;-87
2022/11/18 00:41:14;;;;;;;13.53;7.07;;;;;;;;;;4974391;28;20485;-84
2022/11/18 00:43:40;;;;;;;14.43;8.10;;;;;;;;;;4994729;28;20496;-85
2022/11/18 00:46:07;;;;;;;11.93;6.57;;;;;;;;;;4995033;28;20937;-84
2022/11/18 00:48:33;;;;;;;15.20;8.10;;;;;;;;;;4994582;28;20489;-85
2022/11/18 00:51:05;;;;;;;18.77;9.30;;;;;;;;;;4982446;28;20869;-86
2022/11/18 00:53:31;;;;;;;15.47;8.17;;;;;;;;;;4984126;28;20804;-85
2022/11/18 00:55:57;;;;;;;12.67;7.70;;;;;;;;;;4991031;28;20509;-84
2022/11/18 00:58:23;;;;;;;17.20;11.23;;;;;;;;;;4965699;28;20508;-86
2022/11/18 01:00:50;;;;;;;13.57;7.10;;;;;;;;;;4983866;28;20952;-83
2022/11/18 01:03:17;;;;;;;11.20;8.47;;;;;;;;;;4982327;28;20467;-87
2022/11/18 01:05:42;;;;;;;12.77;6.50;;;;;;;;;;4988797;28;20420;-87
2022/11/18 01:08:09;;;;;;;12.27;7.97;;;;;;;;;;4980767;28;20434;-86
2022/11/18 01:10:36;;;;;;;14.93;8.77;;;;;;;;;;4986014;28;20427;-86
2022/11/18 01:13:21;;;;;;;12.40;7.40;;;;;;;;;;4966092;28;20418;-85
2022/11/18 01:15:50;;;;;;;14.20;7.50;;;;;;;;;;4986277;28;20430;-85
2022/11/18 01:18:17;;;;;;;15.67;8.20;;;;;;;;;;4982642;28;20458;-87
2022/11/18 01:20:43;;;;;;;13.67;8.10;;;;;;;;;;4988802;28;20608;-89
2022/11/18 01:23:09;;;;;;;10.83;7.20;;;;;;;;;;4986625;28;20904;-88
2022/11/18 01:25:36;;;;;;;13.53;7.80;;;;;;;;;;4960951;28;20427;-87
2022/11/18 01:28:02;;;;;;;12.87;7.53;;;;;;;;;;4967073;28;20424;-86
2022/11/18 01:30:31;;;;;;;16.37;8.70;;;;;;;;;;4966817;28;20422;-84
2022/11/18 01:32:57;;;;;;;11.97;7.93;;;;;;;;;;4983812;28;20444;-86
2022/11/18 01:35:23;;;;;;;14.93;8.27;;;;;;;;;;4984402;28;20410;-85
2022/11/18 01:38:09;;;;;;;12.90;8.00;;;;;;;;;;4983027;28;20468;-83
2022/11/18 01:40:35;;;;;;;16.57;11.37;;;;;;;;;;4982931;28;20493;-87
2022/11/18 01:43:01;;;;;;;9.67;7.20;;;;;;;;;;4981948;28;20644;-86
2022/11/18 01:45:36;;;;;;;14.90;8.73;;;;;;;;;;4983853;28;20408;-85
2022/11/18 01:48:15;;;;;;;14.40;8.40;;;;;;;;;;4979083;28;20453;-85
2022/11/18 01:50:44;;;;;;;12.27;7.60;;;;;;;;;;4981834;28;20415;-84
2022/11/18 01:53:20;;;;;;;13.60;8.97;;;;;;;;;;4965863;28;21069;-87
2022/11/18 01:55:47;;;;;;;14.03;9.30;;;;;;;;;;4983893;28;20409;-85
2022/11/18 01:58:22;;;;;;;11.10;7.43;;;;;;;;;;4982951;28;20408;-87
2022/11/18 02:00:47;;;;;;;13.87;8.23;;;;;;;;;;4967993;28;20843;-84
2022/11/18 02:03:13;;;;;;;15.80;8.53;;;;;;;;;;4981743;28;20418;-86
2022/11/18 02:05:41;;;;;;;15.43;10.27;;;;;;;;;;4964630;28;20427;-84
2022/11/18 02:08:07;;;;;;;13.37;8.97;;;;;;;;;;4963807;28;20428;-86
2022/11/18 02:10:33;;;;;;;14.30;9.70;;;;;;;;;;4963793;28;20423;-85
2022/11/18 02:12:59;;;;;;;18.20;10.03;;;;;;;;;;4983477;28;20415;-87
2022/11/18 02:15:38;;;;;;;16.80;10.40;;;;;;;;;;4966446;28;20426;-85
2022/11/18 02:18:09;;;;;;;15.70;10.77;;;;;;;;;;4981711;28;20474;-87
2022/11/18 02:20:39;;;;;;;15.40;11.07;;;;;;;;;;4982844;28;20456;-87
2022/11/18 02:23:16;;;;;;;15.20;9.50;;;;;;;;;;4984373;28;20459;-86
2022/11/18 02:25:45;;;;;;;18.20;9.90;;;;;;;;;;4984368;28;20399;-87
2022/11/18 02:28:29;;;;;;;18.83;10.90;;;;;;;;;;4981142;28;20929;-86
2022/11/18 02:31:01;;;;;;;18.13;12.27;;;;;;;;;;4981208;28;20439;-86
2022/11/18 02:33:39;;;;;;;18.63;12.10;;;;;;;;;;4979474;28;20414;-83
2022/11/18 02:36:12;;;;;;;17.17;11.07;;;;;;;;;;4983649;28;20465;-88
2022/11/18 02:38:44;;;;;;;20.40;11.80;;;;;;;;;;4963827;28;20417;-87
2022/11/18 02:41:12;;;;;;;12.13;8.93;;;;;;;;;;4985875;28;20818;-85
2022/11/18 02:43:45;;;;;;;16.93;11.50;;;;;;;;;;4985195;28;20965;-86
2022/11/18 02:46:14;;;;;;;15.03;10.20;;;;;;;;;;4970161;28;20444;-86
2022/11/18 02:48:44;;;;;;;16.33;9.70;;;;;;;;;;4967146;28;20460;-86
2022/11/18 02:51:11;;;;;;;16.77;10.60;;;;;;;;;;4985307;28;20435;-85
2022/11/18 02:53:38;;;;;;;14.63;10.40;;;;;;;;;;4994260;28;20418;-85
2022/11/18 02:56:04;;;;;;;22.13;12.33;;;;;;;;;;5016594;28;20455;-85
2022/11/18 02:58:30;;;;;;;16.23;9.33;;;;;;;;;;5016210;28;20463;-84
2022/11/18 03:00:58;;;;;;;14.70;9.17;;;;;;;;;;4998992;28;20485;-86
2022/11/18 03:03:25;;;;;;;17.07;8.77;;;;;;;;;;5016569;28;20448;-87
2022/11/18 03:05:57;;;;;;;14.30;9.43;;;;;;;;;;5016408;28;20411;-85
2022/11/18 03:08:25;;;;;;;14.83;10.43;;;;;;;;;;5016253;28;20763;-85
2022/11/18 03:11:00;;;;;;;13.77;9.87;;;;;;;;;;5016301;28;20425;-85
2022/11/18 03:13:29;;;;;;;15.80;9.87;;;;;;;;;;5015987;28;20503;-86
2022/11/18 03:16:00;;;;;;;17.27;10.17;;;;;;;;;;5016194;28;21007;-86
2022/11/18 03:18:28;;;;;;;16.70;9.10;;;;;;;;;;5016408;28;20884;-86
2022/11/18 03:21:05;;;;;;;16.67;10.63;;;;;;;;;;4998718;28;20557;-85
2022/11/18 03:23:54;;;;;;;15.80;9.40;;;;;;;;;;4998622;28;20412;-85
2022/11/18 03:26:22;;;;;;;16.50;10.60;;;;;;;;;;4998586;28;20937;-86
2022/11/18 03:28:48;;;;;;;12.40;8.37;;;;;;;;;;5015587;28;20414;-87
2022/11/18 03:31:16;;;;;;;15.00;10.63;;;;;;;;;;5037268;28;20429;-87
2022/11/18 03:33:45;;;;;;;16.30;9.70;;;;;;;;;;5041407;28;20185;-86
2022/11/18 03:36:13;;;;;;;13.90;8.47;;;;;;;;;;5041457;28;20457;-86
2022/11/18 03:38:42;;;;;;;15.10;9.77;;;;;;;;;;5020137;28;20527;-87
2022/11/18 03:41:10;;;;;;;14.20;10.53;;;;;;;;;;5016082;28;20481;-85
2022/11/18 03:43:39;;;;;;;13.60;8.67;;;;;;;;;;4998182;28;20915;-86
2022/11/18 03:46:08;;;;;;;14.40;8.97;;;;;;;;;;4998069;28;20502;-87
2022/11/18 03:48:37;;;;;;;18.13;10.07;;;;;;;;;;5015719;28;20807;-85
2022/11/18 03:51:07;;;;;;;12.17;7.30;;;;;;;;;;5015292;28;20427;-85
2022/11/18 03:53:36;;;;;;;14.67;10.03;;;;;;;;;;5015636;28;20415;-87
2022/11/18 03:56:06;;;;;;;15.40;9.83;;;;;;;;;;5015627;28;20414;-86
2022/11/18 03:58:40;;;;;;;16.13;10.63;;;;;;;;;;5015234;28;20421;-85
2022/11/18 04:01:11;;;;;;;17.00;10.90;;;;;;;;;;5015297;28;20477;-86
2022/11/18 04:03:37;;;;;;;17.70;8.73;;;;;;;;;;5015295;28;20421;-86
2022/11/18 04:06:09;;;;;;;13.20;7.77;;;;;;;;;;4997784;28;20940;-86
2022/11/18 04:08:37;;;;;;;13.97;8.37;;;;;;;;;;5015367;28;20806;-86
2022/11/18 04:11:06;;;;;;;14.00;8.67;;;;;;;;;;5015478;28;20403;-87
2022/11/18 04:13:34;;;;;;;12.20;8.63;;;;;;;;;;5015084;28;20434;-86
2022/11/18 04:16:00;;;;;;;16.47;10.40;;;;;;;;;;5015434;28;20834;-86
2022/11/18 04:18:26;;;;;;;11.77;7.23;;;;;;;;;;5015148;28;20441;-87
2022/11/18 04:20:52;;;;;;;13.67;9.00;;;;;;;;;;4997436;28;20482;-86
2022/11/18 04:23:18;;;;;;;14.17;7.90;;;;;;;;;;4997524;28;20824;-87
2022/11/18 04:25:44;;;;;;;11.80;7.80;;;;;;;;;;4997572;28;20467;-86
2022/11/18 04:28:10;;;;;;;11.60;7.60;;;;;;;;;;5014788;28;20413;-87
2022/11/18 04:30:36;;;;;;;15.33;8.67;;;;;;;;;;5014879;28;20414;-86
2022/11/18 04:33:02;;;;;;;13.27;8.40;;;;;;;;;;4997423;28;20477;-86
2022/11/18 04:35:28;;;;;;;14.10;8.13;;;;;;;;;;5014857;28;20417;-87
2022/11/18 04:37:54;;;;;;;13.90;9.10;;;;;;;;;;4997240;28;20414;-89
2022/11/18 04:40:20;;;;;;;18.27;8.37;;;;;;;;;;5014570;28;20835;-85
2022/11/18 04:42:46;;;;;;;13.30;7.53;;;;;;;;;;5014438;28;20414;-85
2022/11/18 04:45:12;;;;;;;13.30;8.90;;;;;;;;;;5014487;28;20422;-86
2022/11/18 04:47:38;;;;;;;13.20;7.50;;;;;;;;;;4996945;28;20472;-87
2022/11/18 04:50:05;;;;;;;11.33;7.67;;;;;;;;;;5014479;28;20860;-86
2022/11/18 04:52:30;;;;;;;11.30;8.57;;;;;;;;;;4997044;28;20422;-87
2022/11/18 04:54:56;;;;;;;16.03;9.97;;;;;;;;;;4997024;28;20775;-87
2022/11/18 04:57:22;;;;;;;14.20;8.30;;;;;;;;;;4996816;28;20428;-87
2022/11/18 04:59:48;;;;;;;14.23;9.63;;;;;;;;;;5014128;28;20422;-86
2022/11/18 05:02:14;;;;;;;13.30;8.53;;;;;;;;;;5013653;28;20426;-86
2022/11/18 05:04:40;;;;;;;15.30;10.17;;;;;;;;;;5014368;28;20800;-88
2022/11/18 05:07:06;;;;;;;13.20;9.43;;;;;;;;;;5014312;28;20425;-86
2022/11/18 05:09:32;;;;;;;13.33;8.20;;;;;;;;;;5014418;28;20594;-87
2022/11/18 05:14:43;;;;;;;15.27;10.50;;;;;;;;;;5014461;28;20409;-87
2022/11/18 05:17:09;;;;;;;13.20;9.37;;;;;;;;;;5014515;28;20410;-89
2022/11/18 05:19:39;;;;;;;14.03;8.87;;;;;;;;;;4996717;28;20786;-87
2022/11/18 05:22:05;;;;;;;12.70;7.83;;;;;;;;;;4996630;28;20477;-89
2022/11/18 05:24:31;;;;;;;14.47;7.90;;;;;;;;;;4997005;28;20457;-89
2022/11/18 05:26:57;;;;;;;16.53;10.50;;;;;;;;;;4996977;28;20834;-90
2022/11/18 05:29:23;;;;;;;18.03;10.53;;;;;;;;;;4997134;28;20412;-89
2022/11/18 05:31:49;;;;;;;15.83;9.30;;;;;;;;;;4997162;28;20417;-88
2022/11/18 05:34:15;;;;;;;18.80;11.57;;;;;;;;;;4997459;28;20410;-89
2022/11/18 05:36:41;;;;;;;16.47;11.20;;;;;;;;;;4997202;28;20496;-86
2022/11/18 05:39:08;;;;;;;18.37;9.53;;;;;;;;;;5014526;28;20409;-86
2022/11/18 05:44:18;;;;;;;14.77;9.43;;;;;;;;;;5015226;28;20397;-87
2022/11/18 05:46:44;;;;;;;19.13;11.30;;;;;;;;;;5014641;28;20434;-87
2022/11/18 05:49:10;;;;;;;20.10;11.73;;;;;;;;;;5014448;28;20409;-86
2022/11/18 05:51:36;;;;;;;20.20;11.67;;;;;;;;;;5014758;28;20508;-86
2022/11/18 05:54:04;;;;;;;16.97;11.30;;;;;;;;;;5015137;28;20412;-86
2022/11/18 05:56:37;;;;;;;18.87;10.40;;;;;;;;;;5015415;28;20410;-88
2022/11/18 05:59:04;;;;;;;16.03;11.30;;;;;;;;;;5014703;28;20415;-87
2022/11/18 06:01:30;;;;;;;17.83;10.70;;;;;;;;;;4997009;28;20501;-86
2022/11/18 06:03:56;;;;;;;23.07;14.23;;;;;;;;;;4997091;28;20425;-87
2022/11/18 06:06:23;;;;;;;15.13;11.13;;;;;;;;;;4996556;28;20430;-87
2022/11/18 06:08:59;;;;;;;19.17;11.53;;;;;;;;;;4996779;28;20423;-86
2022/11/18 06:11:25;;;;;;;20.10;11.83;;;;;;;;;;5014623;28;20431;-86
2022/11/18 06:14:01;;;;;;;15.73;11.63;;;;;;;;;;5000117;28;20429;-87
2022/11/18 06:16:28;;;;;;;13.53;10.40;;;;;;;;;;5018291;28;20416;-87
2022/11/18 06:18:54;;;;;;;17.30;13.43;;;;;;;;;;5018234;28;20502;-87
2022/11/18 06:21:20;;;;;;;15.80;10.13;;;;;;;;;;5018524;28;20539;-87
2022/11/18 06:23:47;;;;;;;15.70;12.03;;;;;;;;;;5018166;28;20405;-87
2022/11/18 06:26:14;;;;;;;15.93;13.00;;;;;;;;;;5017631;28;20414;-87
2022/11/18 06:28:40;;;;;;;17.80;11.50;;;;;;;;;;4998779;28;20412;-85
2022/11/18 06:31:06;;;;;;;19.47;12.53;;;;;;;;;;4997414;28;20434;-86
2022/11/18 06:33:35;;;;;;;16.00;9.83;;;;;;;;;;4999388;28;20759;-85
2022/11/18 06:36:02;;;;;;;15.93;11.97;;;;;;;;;;5017509;28;20425;-87
2022/11/18 06:38:28;;;;;;;15.40;10.00;;;;;;;;;;4999517;28;20424;-89
2022/11/18 06:40:58;;;;;;;20.00;12.47;;;;;;;;;;5016012;28;21000;-87
2022/11/18 06:43:42;;;;;;;16.40;9.90;;;;;;;;;;5016724;28;20416;-86
2022/11/18 06:48:57;;;;;;;14.03;11.47;;;;;;;;;;5016938;28;20500;-88
2022/11/18 06:51:23;;;;;;;20.47;11.90;;;;;;;;;;4985715;28;20419;-87
2022/11/18 06:53:50;;;;;;;17.33;12.60;;;;;;;;;;4997060;28;20466;-88
2022/11/18 06:56:19;;;;;;;18.50;12.00;;;;;;;;;;4980654;28;20854;-87
2022/11/18 06:58:45;;;;;;;19.87;11.40;;;;;;;;;;4979231;28;20434;-87
2022/11/18 07:01:20;;;;;;;18.33;11.80;;;;;;;;;;4979538;28;20485;-90
2022/11/18 07:03:46;;;;;;;20.40;11.27;;;;;;;;;;4997109;28;20915;-85
2022/11/18 07:06:14;;;;;;;23.50;12.37;;;;;;;;;;4997096;28;20418;-84
2022/11/18 07:08:40;;;;;;;21.83;12.40;;;;;;;;;;4997241;28;20421;-86
2022/11/18 07:11:07;;;;;;;21.80;13.50;;;;;;;;;;4996990;28;20407;-86
2022/11/18 07:13:34;;;;;;;19.97;11.13;;;;;;;;;;4997070;28;20444;-88
2022/11/18 07:16:04;;;;;;;24.90;13.17;;;;;;;;;;4996819;28;20502;-88
2022/11/18 07:18:31;;;;;;;20.73;13.20;;;;;;;;;;4996802;28;20818;-88
2022/11/18 07:20:57;;;;;;;23.50;13.27;;;;;;;;;;4996584;28;20470;-88
2022/11/18 07:23:23;;;;;;;19.90;13.13;;;;;;;;;;4996679;28;20908;-86
2022/11/18 07:25:48;;;;;;;23.23;12.93;;;;;;;;;;4996031;28;20414;-87
2022/11/18 07:28:17;;;;;;;24.17;14.03;;;;;;;;;;4996314;28;20774;-88
2022/11/18 07:30:43;;;;;;;21.50;13.07;;;;;;;;;;4996668;28;20773;-86
2022/11/18 07:33:09;;;;;;;22.17;12.33;;;;;;;;;;4996623;28;20418;-88
2022/11/18 07:35:35;;;;;;;17.00;10.73;;;;;;;;;;4978862;28;20489;-85
2022/11/18 07:38:01;;;;;;;22.40;11.83;;;;;;;;;;4996382;28;20443;-85
2022/11/18 07:40:29;;;;;;;18.57;13.80;;;;;;;;;;4978938;28;20480;-86
2022/11/18 07:42:55;;;;;;;23.57;14.07;;;;;;;;;;4978786;28;20514;-89
2022/11/18 07:45:22;;;;;;;17.00;10.30;;;;;;;;;;4996229;28;20438;-88
2022/11/18 07:47:48;;;;;;;23.37;14.00;;;;;;;;;;4992233;28;20431;-86
2022/11/18 07:50:15;;;;;;;21.17;11.50;;;;;;;;;;4994614;28;20498;-87
2022/11/18 07:52:41;;;;;;;18.37;11.57;;;;;;;;;;4994961;28;20425;-87
2022/11/18 07:55:07;;;;;;;19.57;11.50;;;;;;;;;;4977539;28;20814;-87
2022/11/18 07:57:33;;;;;;;16.57;11.20;;;;;;;;;;4987395;28;20441;-86
2022/11/18 07:59:59;;;;;;;21.80;11.70;;;;;;;;;;4989363;28;20407;-86
2022/11/18 08:02:25;;;;;;;13.67;9.37;;;;;;;;;;4977927;28;20423;-85
2022/11/18 08:04:51;;;;;;;13.57;10.07;;;;;;;;;;4995410;28;20424;-89
2022/11/18 08:07:16;;;;;;;12.70;9.20;;;;;;;;;;4995715;28;20778;-90
2022/11/18 08:09:42;;;;;;;12.07;9.47;;;;;;;;;;4979351;28;20419;-91
2022/11/18 08:12:08;;;;;;;19.43;11.20;;;;;;;;;;4996624;28;20411;-93
2022/11/18 08:14:34;;;;;;;18.50;11.43;;;;;;;;;;4979210;28;20420;-91
2022/11/18 08:17:00;;;;;;;19.80;9.40;;;;;;;;;;4978542;28;20946;-86
2022/11/18 08:19:26;;;;;;;19.27;11.13;;;;;;;;;;4978334;28;20425;-88
2022/11/18 08:21:52;;;;;;;15.20;9.20;;;;;;;;;;4978102;28;20470;-86
2022/11/18 08:24:18;;;;;;;16.33;11.00;;;;;;;;;;4995515;28;20413;-86
2022/11/18 08:26:44;;;;;;;16.57;11.47;;;;;;;;;;4995537;28;20463;-86
2022/11/18 08:29:10;;;;;;;15.90;9.80;;;;;;;;;;4977825;28;20424;-84
2022/11/18 08:31:36;;;;;;;14.80;9.10;;;;;;;;;;4995278;28;20427;-85
2022/11/18 08:34:04;;;;;;;19.60;11.57;;;;;;;;;;4995306;28;20418;-86
2022/11/18 08:36:31;;;;;;;17.23;10.43;;;;;;;;;;4994753;28;20418;-88
2022/11/18 08:38:59;;;;;;;18.50;11.27;;;;;;;;;;4978136;28;20754;-86
2022/11/18 08:41:30;;;;;;;16.23;10.30;;;;;;;;;;4977659;28;20487;-88
2022/11/18 08:43:56;;;;;;;13.20;9.20;;;;;;;;;;4995052;28;20423;-86
2022/11/18 08:46:22;;;;;;;16.40;9.03;;;;;;;;;;4995129;28;20424;-86
2022/11/18 08:48:48;;;;;;;16.03;11.00;;;;;;;;;;4994955;28;20411;-85
2022/11/18 08:51:14;;;;;;;16.70;10.60;;;;;;;;;;4994984;28;20422;-82
2022/11/18 08:53:41;;;;;;;15.27;10.63;;;;;;;;;;5012704;28;20406;-86
2022/11/18 08:56:07;;;;;;;15.57;10.10;;;;;;;;;;5019643;28;20494;-86
2022/11/18 08:58:33;;;;;;;12.37;8.47;;;;;;;;;;5019239;28;20411;-86
2022/11/18 09:01:04;;;;;;;14.50;8.57;;;;;;;;;;5006381;28;20482;-88
2022/11/18 09:03:29;;;;;;;14.90;8.50;;;;;;;;;;4995597;28;20398;-86
2022/11/18 09:06:04;;;;;;;16.27;9.30;;;;;;;;;;4995354;28;20818;-89
2022/11/18 09:08:30;;;;;;;13.23;9.03;;;;;;;;;;4995332;28;20400;-88
2022/11/18 09:10:56;;;;;;;14.07;8.80;;;;;;;;;;4977784;28;20417;-89
2022/11/18 09:13:22;;;;;;;15.00;10.60;;;;;;;;;;4994939;28;20910;-88
2022/11/18 09:15:48;;;;;;;13.37;9.60;;;;;;;;;;4995263;28;20414;-87
2022/11/18 09:18:13;;;;;;;14.80;9.27;;;;;;;;;;4995018;28;20873;-89
2022/11/18 09:20:39;;;;;;;14.00;9.43;;;;;;;;;;4977600;28;20465;-89
2022/11/18 09:23:05;;;;;;;15.43;9.70;;;;;;;;;;4995008;28;20419;-91
2022/11/18 09:25:31;;;;;;;17.57;10.83;;;;;;;;;;4994971;28;20414;-88
2022/11/18 09:27:57;;;;;;;13.73;9.77;;;;;;;;;;4994358;28;20406;-83
2022/11/18 09:30:23;;;;;;;17.30;11.33;;;;;;;;;;4977484;28;20411;-86
2022/11/18 09:32:49;;;;;;;15.37;9.17;;;;;;;;;;4994750;28;20467;-89
2022/11/18 09:35:15;;;;;;;14.77;9.20;;;;;;;;;;4977181;28;20820;-86
2022/11/18 09:37:41;;;;;;;18.30;10.83;;;;;;;;;;4977391;28;20415;-88
2022/11/18 09:40:13;;;;;;;11.73;8.40;;;;;;;;;;4994483;28;20473;-88
2022/11/18 09:43:02;;;;;;;16.57;9.93;;;;;;;;;;4993944;28;20418;-86
2022/11/18 09:45:30;;;;;;;15.50;9.13;;;;;;;;;;4966526;28;20413;-87
2022/11/18 09:47:57;;;;;;;14.90;8.13;;;;;;;;;;4976236;28;20470;-84
2022/11/18 09:50:24;;;;;;;16.70;9.03;;;;;;;;;;4994086;28;20458;-87
2022/11/18 09:53:03;;;;;;;12.70;9.53;;;;;;;;;;4977157;28;20469;-89
2022/11/18 09:55:30;;;;;;;12.70;10.07;;;;;;;;;;4994612;28;20771;-88
2022/11/18 09:57:58;;;;;;;11.90;8.10;;;;;;;;;;4993976;28;20434;-87
2022/11/18 10:00:25;;;;;;;17.50;9.57;;;;;;;;;;4976888;28;20517;-88
2022/11/18 10:03:02;;;;;;;11.70;8.57;;;;;;;;;;4994434;28;20445;-89
2022/11/18 10:05:47;;;;;;;15.77;8.30;;;;;;;;;;4994318;28;20418;-86
2022/11/18 10:08:13;;;;;;;12.43;9.10;;;;;;;;;;4976969;28;20425;-88
2022/11/18 10:10:39;;;;;;;15.03;8.57;;;;;;;;;;4994412;28;20424;-89
2022/11/18 10:13:13;;;;;;;10.93;7.23;;;;;;;;;;4976482;28;20175;-88
2022/11/18 10:15:42;;;;;;;10.10;7.03;;;;;;;;;;4994305;28;20471;-89
2022/11/18 10:18:17;;;;;;;8.97;6.93;;;;;;;;;;4994294;28;20424;-87
2022/11/18 10:20:51;;;;;;;8.80;7.10;;;;;;;;;;4994138;28;20549;-89
2022/11/18 10:23:20;;;;;;;15.87;7.03;;;;;;;;;;4994497;28;20447;-87
2022/11/18 10:25:46;;;;;;;12.17;7.50;;;;;;;;;;4994615;28;20549;-89
2022/11/18 10:28:22;;;;;;;11.43;8.20;;;;;;;;;;4976793;28;20425;-87
2022/11/18 10:30:48;;;;;;;13.60;7.70;;;;;;;;;;4977104;28;20606;-87
2022/11/18 10:33:20;;;;;;;12.33;8.30;;;;;;;;;;4994455;28;20422;-87
2022/11/18 10:35:46;;;;;;;11.33;7.07;;;;;;;;;;4994014;28;20427;-84
2022/11/18 10:38:12;;;;;;;10.03;7.40;;;;;;;;;;4993545;28;20414;-85
2022/11/18 10:40:43;;;;;;;9.60;6.60;;;;;;;;;;4993280;28;20558;-86
2022/11/18 10:43:12;;;;;;;9.33;6.93;;;;;;;;;;4993508;28;20228;-86
2022/11/18 10:45:38;;;;;;;11.60;7.47;;;;;;;;;;4993542;28;20419;-83
2022/11/18 10:48:08;;;;;;;11.07;6.93;;;;;;;;;;4993390;28;20518;-83
2022/11/18 10:50:39;;;;;;;10.67;6.63;;;;;;;;;;4976031;28;20429;-84
2022/11/18 10:53:06;;;;;;;9.63;6.60;;;;;;;;;;4976220;28;20521;-86
2022/11/18 10:55:33;;;;;;;10.23;6.57;;;;;;;;;;4994076;28;20404;-87
2022/11/18 10:58:09;;;;;;;7.60;6.07;;;;;;;;;;4976142;28;20430;-88
2022/11/18 11:00:38;;;;;;;9.43;6.67;;;;;;;;;;4995535;28;20477;-86
2022/11/18 11:03:24;;;;;;;7.43;6.23;;;;;;;;;;4997618;28;20760;-85
2022/11/18 11:06:09;;;;;;;7.40;5.50;;;;;;;;;;4997424;28;20419;-86
2022/11/18 11:08:45;;;;;;;7.00;5.27;;;;;;;;;;4980073;28;20422;-86
2022/11/18 11:11:18;;;;;;;7.50;5.57;;;;;;;;;;4997409;28;20399;-86
2022/11/18 11:13:45;;;;;;;6.63;5.70;;;;;;;;;;4979556;28;20410;-87
2022/11/18 11:16:13;;;;;;;8.37;6.27;;;;;;;;;;4979621;28;20446;-86
2022/11/18 11:18:41;;;;;;;9.37;5.70;;;;;;;;;;4997131;28;20919;-86
2022/11/18 11:21:11;;;;;;;15.70;6.33;;;;;;;;;;4979433;28;20571;-86
2022/11/18 11:23:37;;;;;;;7.43;5.60;;;;;;;;;;4980255;28;20455;-85
2022/11/18 11:26:05;;;;;;;7.67;4.60;;;;;;;;;;4979950;28;20454;-84
2022/11/18 11:28:50;;;;;;;6.93;4.93;;;;;;;;;;4978535;28;20433;-86
2022/11/18 11:31:16;;;;;;;7.90;4.97;;;;;;;;;;4978859;28;20418;-85
2022/11/18 11:34:00;;;;;;;10.07;5.40;;;;;;;;;;4978805;28;20421;-86
2022/11/18 11:36:29;;;;;;;8.77;4.30;;;;;;;;;;4978835;28;20419;-84
2022/11/18 11:39:00;;;;;;;8.90;5.93;;;;;;;;;;4996153;28;20949;-85
2022/11/18 11:41:30;;;;;;;6.77;5.20;;;;;;;;;;4995775;28;20541;-85
2022/11/18 11:44:14;;;;;;;5.27;4.53;;;;;;;;;;4978863;28;20431;-85
2022/11/18 11:47:45;;;;;;;7.83;4.73;;;;;;;;;;4978636;28;20484;-84
2022/11/18 11:49:42;;;;;;;5.27;3.20;;;;;;;;;;4995974;28;20457;-84
2022/11/18 11:52:18;;;;;;;6.90;4.37;;;;;;;;;;4978548;28;20431;-84
2022/11/18 11:54:56;;;;;;;7.57;4.30;;;;;;;;;;4977929;28;20410;-84
2022/11/18 11:57:28;;;;;;;8.47;4.20;;;;;;;;;;4993952;28;20473;-85
2022/11/18 12:00:01;;;;;;;4.20;3.47;;;;;;;;;;4977670;28;20415;-84
2022/11/18 12:02:33;;;;;;;5.50;4.30;;;;;;;;;;4978046;28;20992;-85
2022/11/18 12:05:18;;;;;;;4.00;2.60;;;;;;;;;;4995786;28;20403;-86
2022/11/18 12:07:58;;;;;;;7.80;4.00;;;;;;;;;;4978300;28;20415;-85
2022/11/18 12:10:36;;;;;;;5.97;4.20;;;;;;;;;;4978102;28;20739;-84
2022/11/18 12:13:11;;;;;;;6.60;4.07;;;;;;;;;;4995497;28;20715;-85
2022/11/18 12:16:01;;;;;;;6.10;3.53;;;;;;;;;;4995763;28;20407;-84
2022/11/18 12:18:36;;;;;;;6.37;3.17;;;;;;;;;;4978167;28;20846;-84
2022/11/18 12:21:02;;;;;;;5.50;3.47;;;;;;;;;;4977953;28;21094;-84
2022/11/18 12:23:29;;;;;;;5.70;3.17;;;;;;;;;;4995503;28;20513;-85
2022/11/18 12:26:11;;;;;;;9.03;3.53;;;;;;;;;;4995499;28;20466;-85
2022/11/18 12:28:41;;;;;;;7.13;3.60;;;;;;;;;;4977931;28;20425;-85
2022/11/18 12:31:20;;;;;;;7.53;3.23;;;;;;;;;;4977902;28;20510;-84
2022/11/18 12:33:46;;;;;;;8.17;4.60;;;;;;;;;;4995286;28;20442;-86
2022/11/18 12:36:25;;;;;;;7.17;4.57;;;;;;;;;;4995370;28;20423;-86
2022/11/18 12:38:51;;;;;;;7.50;3.90;;;;;;;;;;4978241;28;20423;-84
2022/11/18 12:44:23;;;;;;;6.17;3.67;;;;;;;;;;4984209;28;20403;-84
2022/11/18 12:46:49;;;;;;;6.40;3.47;;;;;;;;;;4977422;28;20517;-84
2022/11/18 12:49:21;;;;;;;6.70;4.10;;;;;;;;;;4995264;28;20746;-86
2022/11/18 12:51:47;;;;;;;5.67;3.87;;;;;;;;;;4995677;28;20904;-89
2022/11/18 12:54:40;;;;;;;7.30;3.20;;;;;;;;;;4978828;28;20478;-90
2022/11/18 12:57:12;;;;;;;7.03;4.73;;;;;;;;;;4973786;28;20518;-88
2022/11/18 12:59:38;;;;;;;5.10;3.50;;;;;;;;;;4977453;28;20870;-88
2022/11/18 13:02:10;;;;;;;4.90;3.20;;;;;;;;;;4995327;28;20539;-92
2022/11/18 13:04:36;;;;;;;9.90;3.83;;;;;;;;;;4978344;28;20422;-87
2022/11/18 13:07:03;;;;;;;7.17;4.23;;;;;;;;;;4997461;28;20411;-90
2022/11/18 13:09:30;;;;;;;7.10;3.77;;;;;;;;;;4996512;28;20412;-91
2022/11/18 13:11:59;;;;;;;7.00;4.43;;;;;;;;;;4999537;28;20483;-90
2022/11/18 13:17:51;;;;;;;7.47;3.93;;;;;;;;;;4997220;28;20414;-92
2022/11/18 13:20:30;;;;;;;5.30;4.07;;;;;;;;;;4996750;28;20815;-90
2022/11/18 13:25:44;;;;;;;7.40;3.43;;;;;;;;;;4997837;28;20404;-92
2022/11/18 13:28:22;;;;;;;5.80;4.40;;;;;;;;;;4982867;28;20481;-92
2022/11/18 13:30:59;;;;;;;5.80;3.63;;;;;;;;;;4983049;28;20494;-93
2022/11/18 13:33:25;;;;;;;4.67;3.80;;;;;;;;;;4984042;28;20516;-90
2022/11/18 13:35:51;;;;;;;6.80;5.10;;;;;;;;;;4983321;28;20469;-90
2022/11/18 13:38:19;;;;;;;8.87;4.50;;;;;;;;;;4984274;28;20463;-91
2022/11/18 13:41:06;;;;;;;8.50;4.90;;;;;;;;;;5000382;28;20498;-91
2022/11/18 13:43:33;;;;;;;6.00;3.00;;;;;;;;;;5000613;28;20437;-92
2022/11/18 13:46:00;;;;;;;6.00;3.60;;;;;;;;;;5001179;28;20411;-91
2022/11/18 13:48:27;;;;;;;6.83;4.80;;;;;;;;;;5000749;28;20425;-91
2022/11/18 13:50:54;;;;;;;9.60;6.77;;;;;;;;;;5000780;28;20412;-93
2022/11/18 13:53:32;;;;;;;8.57;5.20;;;;;;;;;;5001216;28;20423;-91
2022/11/18 13:56:03;;;;;;;11.33;3.87;;;;;;;;;;5001733;28;20505;-92
2022/11/18 13:58:29;;;;;;;5.57;5.00;;;;;;;;;;5002167;28;20418;-92
2022/11/18 14:01:03;;;;;;;7.10;4.47;;;;;;;;;;4984441;28;20603;-94
2022/11/18 14:03:39;;;;;;;5.83;3.20;;;;;;;;;;5001680;28;20415;-89
2022/11/18 14:06:06;;;;;;;6.73;4.40;;;;;;;;;;4984724;28;20426;-93
2022/11/18 14:08:33;;;;;;;7.10;4.17;;;;;;;;;;4984351;28;20426;-92
2022/11/18 14:11:00;;;;;;;7.77;5.17;;;;;;;;;;5002195;28;20421;-92
2022/11/18 14:13:26;;;;;;;6.20;4.47;;;;;;;;;;5002705;28;20400;-91
2022/11/18 14:15:53;;;;;;;8.17;4.97;;;;;;;;;;5001676;28;20427;-90
2022/11/18 14:18:30;;;;;;;4.67;3.30;;;;;;;;;;4984358;28;20441;-89
2022/11/18 14:20:56;;;;;;;6.73;3.50;;;;;;;;;;4984341;28;20529;-92
2022/11/18 14:23:27;;;;;;;5.40;3.27;;;;;;;;;;5001878;28;20438;-93
2022/11/18 14:25:53;;;;;;;5.20;3.40;;;;;;;;;;5001304;28;20441;-93
2022/11/18 14:28:19;;;;;;;5.03;3.50;;;;;;;;;;5001446;28;20415;-92
2022/11/18 14:30:56;;;;;;;5.47;2.30;;;;;;;;;;5001817;28;20765;-89
2022/11/18 14:33:26;;;;;;;4.20;2.53;;;;;;;;;;4986505;28;20490;-93
2022/11/18 14:35:57;;;;;;;5.70;2.63;;;;;;;;;;4996888;28;20415;-93
2022/11/18 14:38:38;;;;;;;5.03;3.07;;;;;;;;;;4981150;28;20416;-93
2022/11/18 14:41:05;;;;;;;6.20;2.80;;;;;;;;;;4980410;28;20539;-94
2022/11/18 14:43:31;;;;;;;5.20;3.60;;;;;;;;;;4998524;28;20494;-93
2022/11/18 14:46:01;;;;;;;4.30;3.07;;;;;;;;;;4998439;28;20452;-92
2022/11/18 14:48:28;;;;;;;3.50;2.50;;;;;;;;;;4998440;28;20412;-92
2022/11/18 14:50:54;;;;;;;3.13;1.70;;;;;;;;;;4998368;28;20450;-93
2022/11/18 14:53:20;;;;;;;3.03;2.27;;;;;;;;;;4998153;28;20411;-90
2022/11/18 14:55:48;;;;;;;4.20;1.80;;;;;;;;;;4980808;28;20952;-91
2022/11/18 14:58:14;;;;;;;4.83;2.60;;;;;;;;;;4981675;28;20509;-94
2022/11/18 15:00:44;;;;;;;3.30;2.07;;;;;;;;;;4998189;28;20459;-93